Terminal Aerodrome Forecast
Issued by NWS

Home | Current Version | Previous Version | Text Only | Print | Product List | Glossary On
Versions: 1 2 3 4 5 6 7 8 9 10 11 12 13 14 15 16 17 18 19 20 21
065
FTUS43 KDLH 201140
TAFHIB
TAF
KHIB 201140Z 2012/2112 00000KT 3SM BR BKN005
     FM201400 23005KT P6SM FEW250
      TEMPO 2014/2015 BKN018
     FM201600 28007KT P6SM FEW250
     FM210300 VRB03KT P6SM FEW250=

USA.gov is the U.S. government's official web portal to all federal, state and local government web resources and services.